Time;durP1;ratioP1;P1;durP2;ratioP2;P2;SDS_P1;SDS_P2;PMS_P1;PMS_P2;Temp;Humidity;BMP_temperature;BMP_pressure;BME280_temperature;BME280_humidity;BME280_pressure;Samples;Min_cycle;Max_cycle;Signal;HPM_P1;HPM_P2
2023/09/06 00:00:28;;;;;;;6.53;5.13;;;21.00;99.90;;;;;;5015073;28;20509;-59
2023/09/06 00:02:55;;;;;;;5.80;5.40;;;21.00;99.90;;;;;;5014310;28;20409;-59
2023/09/06 00:05:21;;;;;;;5.87;5.37;;;21.00;99.90;;;;;;5016075;28;20480;-59
2023/09/06 00:07:47;;;;;;;5.33;4.93;;;21.00;99.90;;;;;;5015047;28;20426;-59
2023/09/06 00:10:14;;;;;;;5.40;4.90;;;21.00;99.90;;;;;;5014200;28;20174;-59
2023/09/06 00:12:41;;;;;;;5.77;5.07;;;21.00;99.90;;;;;;5012331;28;20179;-59
2023/09/06 00:15:10;;;;;;;6.83;4.60;;;21.00;99.90;;;;;;5013332;28;20425;-59
2023/09/06 00:17:37;;;;;;;4.80;4.50;;;21.00;99.90;;;;;;5013393;28;20447;-59
2023/09/06 00:23:05;;;;;;;4.53;4.23;;;21.00;99.90;;;;;;4992699;28;20786;-59
2023/09/06 00:25:32;;;;;;;4.77;4.50;;;21.00;99.90;;;;;;5015337;28;20927;-59
2023/09/06 00:28:00;;;;;;;5.20;4.83;;;21.00;99.90;;;;;;5014462;28;20428;-59
2023/09/06 00:30:26;;;;;;;4.90;4.60;;;20.90;99.90;;;;;;5015198;28;20414;-59
2023/09/06 00:32:53;;;;;;;4.80;4.60;;;20.90;99.90;;;;;;5015150;28;20430;-59
2023/09/06 00:35:27;;;;;;;5.00;4.70;;;20.90;99.90;;;;;;5015066;28;20274;-59
2023/09/06 00:37:54;;;;;;;4.50;4.30;;;20.90;99.90;;;;;;5014990;28;20982;-59
2023/09/06 00:40:23;;;;;;;5.07;4.77;;;20.90;99.90;;;;;;5013013;28;20508;-59
2023/09/06 00:42:50;;;;;;;5.17;4.90;;;20.90;99.90;;;;;;5007571;28;20441;-59
2023/09/06 00:45:21;;;;;;;5.20;5.00;;;21.00;99.90;;;;;;5014539;28;20792;-59
2023/09/06 00:47:47;;;;;;;4.80;4.50;;;21.00;99.90;;;;;;5014363;28;20410;-59
2023/09/06 00:50:13;;;;;;;5.47;5.17;;;21.00;99.90;;;;;;5014498;28;20422;-59
2023/09/06 00:52:40;;;;;;;5.47;5.07;;;21.00;99.90;;;;;;5014263;28;20917;-59
2023/09/06 00:55:06;;;;;;;5.10;4.80;;;20.90;99.90;;;;;;5013014;28;20468;-59
2023/09/06 00:57:32;;;;;;;5.43;5.13;;;20.90;99.90;;;;;;5012989;28;20548;-59
2023/09/06 00:59:59;;;;;;;5.00;4.80;;;20.90;99.90;;;;;;5013777;28;20445;-59
2023/09/06 01:02:28;;;;;;;4.73;4.53;;;20.90;99.90;;;;;;5014292;28;20233;-59
2023/09/06 01:04:54;;;;;;;4.70;4.50;;;20.90;99.90;;;;;;5014570;28;20432;-59
2023/09/06 01:07:23;;;;;;;5.33;4.93;;;20.90;99.90;;;;;;5013597;28;20414;-59
2023/09/06 01:09:49;;;;;;;5.10;4.90;;;20.90;99.90;;;;;;5014625;28;20432;-59
2023/09/06 01:12:15;;;;;;;5.07;4.77;;;20.90;99.90;;;;;;5011340;28;20430;-59
2023/09/06 01:14:41;;;;;;;5.90;5.40;;;20.90;99.90;;;;;;5014227;28;20909;-59
2023/09/06 01:17:12;;;;;;;5.10;4.80;;;20.90;99.90;;;;;;5013493;28;20202;-59
2023/09/06 01:19:43;;;;;;;5.20;4.90;;;20.90;99.90;;;;;;5013127;28;20324;-59
2023/09/06 01:22:20;;;;;;;5.60;5.20;;;20.80;99.90;;;;;;5013680;28;20414;-59
2023/09/06 01:24:47;;;;;;;5.43;5.03;;;20.80;99.90;;;;;;5014558;28;20418;-59
2023/09/06 01:27:13;;;;;;;4.90;4.50;;;20.80;99.90;;;;;;5012391;28;20464;-59
2023/09/06 01:29:39;;;;;;;5.60;5.30;;;20.80;99.90;;;;;;5012769;28;20418;-59
2023/09/06 01:32:05;;;;;;;5.47;5.07;;;20.70;99.90;;;;;;5013365;28;20759;-59
2023/09/06 01:34:32;;;;;;;6.00;5.40;;;20.70;99.90;;;;;;5013835;28;20899;-59
2023/09/06 01:36:57;;;;;;;6.60;6.20;;;20.70;99.90;;;;;;5013602;28;20822;-59
2023/09/06 01:39:23;;;;;;;5.47;5.07;;;20.70;99.90;;;;;;5013000;28;20438;-59
2023/09/06 01:41:49;;;;;;;5.60;5.20;;;20.70;99.90;;;;;;5012769;28;20216;-59
2023/09/06 01:44:15;;;;;;;6.00;5.60;;;20.70;99.90;;;;;;5012021;28;20186;-59
2023/09/06 01:46:41;;;;;;;5.53;5.23;;;20.60;99.90;;;;;;5013494;28;20186;-59
2023/09/06 01:49:08;;;;;;;6.23;5.93;;;20.60;99.90;;;;;;5012814;28;20627;-59
2023/09/06 01:51:35;;;;;;;5.90;5.50;;;20.60;99.90;;;;;;5012494;28;20454;-59
2023/09/06 01:54:04;;;;;;;6.03;5.70;;;20.60;99.90;;;;;;5013394;28;20820;-59
2023/09/06 01:56:30;;;;;;;5.97;5.50;;;20.50;99.90;;;;;;5013306;28;20493;-59
2023/09/06 01:58:56;;;;;;;4.93;4.53;;;20.50;99.90;;;;;;5013413;28;20472;-59
2023/09/06 02:01:22;;;;;;;5.10;4.80;;;20.50;99.90;;;;;;5012285;28;20422;-59
2023/09/06 02:03:48;;;;;;;5.60;5.30;;;20.60;99.90;;;;;;5013586;28;20183;-59
2023/09/06 02:06:13;;;;;;;5.10;4.80;;;20.60;99.90;;;;;;5009981;28;20186;-59
2023/09/06 02:08:39;;;;;;;4.90;4.70;;;20.60;99.90;;;;;;5013168;28;20179;-59
2023/09/06 02:11:06;;;;;;;5.20;4.90;;;20.60;99.90;;;;;;5012993;28;20627;-59
2023/09/06 02:13:32;;;;;;;5.10;4.80;;;20.60;99.90;;;;;;5013417;28;20202;-59
2023/09/06 02:16:01;;;;;;;5.80;5.37;;;20.60;99.90;;;;;;5013212;28;21030;-59
2023/09/06 02:18:27;;;;;;;5.30;5.03;;;20.60;99.90;;;;;;5012961;28;20832;-59
2023/09/06 02:20:56;;;;;;;5.70;5.30;;;20.60;99.90;;;;;;5013590;28;20449;-59
2023/09/06 02:23:22;;;;;;;5.40;5.10;;;20.60;99.90;;;;;;5011288;28;20171;-59
2023/09/06 02:25:48;;;;;;;5.37;4.90;;;20.60;99.90;;;;;;5012991;28;20428;-59
2023/09/06 02:28:17;;;;;;;5.20;4.87;;;20.50;99.90;;;;;;5012514;28;20516;-59
2023/09/06 02:30:43;;;;;;;5.07;4.63;;;20.50;99.90;;;;;;5012743;28;20631;-59
2023/09/06 02:33:14;;;;;;;5.50;5.20;;;20.50;99.90;;;;;;5012098;28;20418;-59
2023/09/06 02:35:40;;;;;;;5.13;4.73;;;20.50;99.90;;;;;;5012317;28;20449;-59
2023/09/06 02:38:11;;;;;;;5.90;5.40;;;20.50;99.90;;;;;;5011711;28;20520;-59
2023/09/06 02:40:42;;;;;;;5.30;5.00;;;20.50;99.90;;;;;;5012680;28;20422;-59
2023/09/06 02:43:10;;;;;;;5.20;4.90;;;20.50;99.90;;;;;;5010867;28;20414;-59
2023/09/06 02:45:37;;;;;;;5.50;5.10;;;20.50;99.90;;;;;;5012804;28;20422;-59
2023/09/06 02:48:07;;;;;;;7.50;7.03;;;20.40;99.90;;;;;;5011246;28;20414;-59
2023/09/06 02:50:37;;;;;;;6.40;5.80;;;20.40;99.90;;;;;;5012582;28;20449;-59
2023/09/06 02:53:03;;;;;;;5.50;5.20;;;20.40;99.90;;;;;;5011228;28;20425;-59
2023/09/06 02:55:34;;;;;;;6.30;5.80;;;20.40;99.90;;;;;;5012398;28;20490;-59
2023/09/06 02:58:01;;;;;;;6.60;6.10;;;20.30;99.90;;;;;;5011104;28;20738;-59
2023/09/06 03:00:29;;;;;;;6.63;6.23;;;20.30;99.90;;;;;;5012026;28;20426;-59
2023/09/06 03:02:59;;;;;;;6.20;5.70;;;20.30;99.90;;;;;;5011460;28;20425;-59
2023/09/06 03:05:26;;;;;;;6.90;6.30;;;20.20;99.90;;;;;;5011754;28;20715;-59
2023/09/06 03:07:53;;;;;;;7.13;6.53;;;20.20;99.90;;;;;;5010477;28;20524;-59
2023/09/06 03:10:20;;;;;;;6.50;6.07;;;20.10;99.90;;;;;;5012228;28;20414;-59
2023/09/06 03:12:48;;;;;;;7.17;6.77;;;20.10;99.90;;;;;;5012189;28;20846;-59
2023/09/06 03:15:15;;;;;;;6.30;5.90;;;20.10;99.90;;;;;;5011913;28;20441;-59
2023/09/06 03:17:41;;;;;;;7.00;6.60;;;20.10;99.90;;;;;;5012595;28;20425;-59
2023/09/06 03:20:19;;;;;;;6.43;6.13;;;20.10;99.90;;;;;;5015895;28;20508;-59
2023/09/06 03:22:51;;;;;;;6.30;5.90;;;20.10;99.90;;;;;;5015118;28;20175;-59
2023/09/06 03:25:17;;;;;;;6.30;6.00;;;20.10;99.90;;;;;;4996566;28;20418;-59
2023/09/06 03:27:44;;;;;;;6.63;6.23;;;20.10;99.90;;;;;;5007690;28;20426;-59
2023/09/06 03:30:13;;;;;;;6.33;5.93;;;20.10;99.90;;;;;;5014460;28;20437;-59
2023/09/06 03:32:42;;;;;;;6.90;6.30;;;20.10;99.90;;;;;;5016128;28;20498;-59
2023/09/06 03:35:08;;;;;;;6.03;5.63;;;20.10;99.90;;;;;;5010855;28;20512;-59
2023/09/06 03:37:34;;;;;;;6.63;6.17;;;20.00;99.90;;;;;;5002273;28;20477;-59
2023/09/06 03:40:00;;;;;;;7.03;6.63;;;20.10;99.90;;;;;;5016408;28;20418;-60
2023/09/06 03:42:30;;;;;;;6.73;6.23;;;20.10;99.90;;;;;;5015235;28;20175;-59
2023/09/06 03:44:56;;;;;;;8.43;7.70;;;19.90;99.90;;;;;;5015837;28;20406;-59
2023/09/06 03:47:21;;;;;;;9.27;8.30;;;19.90;99.90;;;;;;5015679;28;20496;-59
2023/09/06 03:49:47;;;;;;;7.37;6.87;;;19.90;99.90;;;;;;5015705;28;20180;-60
2023/09/06 03:52:16;;;;;;;8.50;8.00;;;19.90;99.90;;;;;;5013482;28;20171;-59
2023/09/06 03:54:42;;;;;;;7.90;7.20;;;20.00;99.90;;;;;;5015603;28;20566;-60
2023/09/06 03:57:12;;;;;;;8.63;6.87;;;19.90;99.90;;;;;;5016331;28;20460;-59
2023/09/06 03:59:40;;;;;;;8.90;8.40;;;19.90;99.90;;;;;;5014575;28;20592;-60
2023/09/06 04:02:09;;;;;;;6.63;5.90;;;19.90;99.90;;;;;;5015772;28;20414;-60
2023/09/06 04:04:37;;;;;;;6.93;6.47;;;19.80;99.90;;;;;;5015775;28;20414;-59
2023/09/06 04:07:03;;;;;;;9.97;6.70;;;19.80;99.90;;;;;;5014441;28;20473;-59
2023/09/06 04:09:37;;;;;;;6.97;6.30;;;19.80;99.90;;;;;;5013874;28;20458;-59
2023/09/06 04:12:05;;;;;;;6.87;6.00;;;19.80;99.90;;;;;;5015358;28;20509;-58
2023/09/06 04:14:35;;;;;;;7.17;6.60;;;19.80;99.90;;;;;;5014632;28;20414;-58
2023/09/06 04:17:06;;;;;;;7.47;6.10;;;19.80;99.90;;;;;;5015781;28;20493;-58
2023/09/06 04:19:33;;;;;;;6.87;6.30;;;19.80;99.90;;;;;;5013384;28;20418;-58
2023/09/06 04:22:01;;;;;;;8.63;8.03;;;19.80;99.90;;;;;;5015221;28;20501;-57
2023/09/06 04:24:27;;;;;;;8.77;7.73;;;19.70;99.90;;;;;;5013894;28;20441;-57
2023/09/06 04:26:53;;;;;;;7.17;6.57;;;19.70;99.90;;;;;;5015261;28;20449;-57
2023/09/06 04:29:19;;;;;;;7.40;6.80;;;19.60;99.90;;;;;;5014393;28;20181;-58
2023/09/06 04:31:45;;;;;;;6.57;5.97;;;19.60;99.90;;;;;;5013886;28;20418;-58
2023/09/06 04:34:12;;;;;;;7.07;6.57;;;19.50;99.90;;;;;;5014275;28;20630;-58
2023/09/06 04:36:37;;;;;;;6.80;6.13;;;19.60;99.90;;;;;;5013871;28;20211;-58
2023/09/06 04:39:03;;;;;;;9.20;8.33;;;19.50;99.90;;;;;;5013551;28;20473;-58
2023/09/06 04:41:31;;;;;;;7.97;7.27;;;19.50;99.90;;;;;;5014443;28;20195;-57
2023/09/06 04:43:57;;;;;;;8.03;7.00;;;19.50;99.90;;;;;;5014625;28;20910;-58
2023/09/06 04:46:22;;;;;;;7.63;7.00;;;19.40;99.90;;;;;;5009872;28;20445;-58
2023/09/06 04:48:52;;;;;;;9.13;8.43;;;19.40;99.90;;;;;;5013667;28;20433;-58
2023/09/06 04:51:18;;;;;;;8.90;8.20;;;19.40;99.90;;;;;;5014323;28;20422;-58
2023/09/06 04:53:44;;;;;;;8.73;7.80;;;19.30;99.90;;;;;;5014650;28;20202;-58
2023/09/06 04:56:10;;;;;;;8.00;7.40;;;19.30;99.90;;;;;;5014874;28;20539;-58
2023/09/06 04:58:35;;;;;;;10.13;8.00;;;19.30;99.90;;;;;;5014135;28;20648;-58
2023/09/06 05:01:06;;;;;;;10.13;9.13;;;19.30;99.90;;;;;;5008579;28;20200;-58
2023/09/06 05:03:33;;;;;;;8.40;7.70;;;19.40;99.90;;;;;;5013886;28;20175;-58
2023/09/06 05:06:00;;;;;;;7.70;7.10;;;19.40;99.90;;;;;;5012927;28;20429;-58
2023/09/06 05:08:25;;;;;;;8.27;7.57;;;19.40;99.90;;;;;;5012305;28;20422;-58
2023/09/06 05:10:51;;;;;;;9.30;8.40;;;19.40;99.90;;;;;;5014848;28;20417;-58
2023/09/06 05:13:18;;;;;;;9.07;8.27;;;19.30;99.90;;;;;;5011648;28;20677;-58
2023/09/06 05:15:44;;;;;;;10.27;9.23;;;19.40;99.90;;;;;;5012520;28;20548;-58
2023/09/06 05:18:10;;;;;;;11.57;10.60;;;19.40;99.90;;;;;;5014551;28;20414;-58
2023/09/06 05:20:38;;;;;;;10.63;9.80;;;19.30;99.90;;;;;;5013708;28;20410;-58
2023/09/06 05:23:10;;;;;;;12.67;9.50;;;19.30;99.90;;;;;;5013609;28;20832;-58
2023/09/06 05:25:37;;;;;;;9.87;8.97;;;19.30;99.90;;;;;;5013295;28;20453;-58
2023/09/06 05:28:08;;;;;;;9.77;8.80;;;19.30;99.90;;;;;;5013860;28;20822;-58
2023/09/06 05:30:40;;;;;;;9.93;9.00;;;19.40;99.90;;;;;;5013238;28;21014;-58
2023/09/06 05:33:06;;;;;;;9.27;8.50;;;19.40;99.90;;;;;;5014217;28;20892;-57
2023/09/06 05:35:32;;;;;;;10.43;9.47;;;19.40;99.90;;;;;;4994983;28;20974;-58
2023/09/06 05:37:58;;;;;;;271.97;178.77;;;19.40;99.90;;;;;;5009810;28;20464;-58
2023/09/06 05:40:23;;;;;;;267.20;157.10;;;19.50;99.90;;;;;;5001638;28;20904;-58
2023/09/06 05:42:50;;;;;;;45.93;34.33;;;19.50;99.90;;;;;;5008265;28;20176;-57
2023/09/06 05:45:23;;;;;;;11.70;10.50;;;19.50;99.90;;;;;;5006058;28;20180;-66
2023/09/06 05:47:49;;;;;;;9.03;8.23;;;19.60;99.90;;;;;;5005016;28;20462;-65
2023/09/06 05:50:16;;;;;;;9.57;8.70;;;19.70;99.90;;;;;;5008797;28;20414;-68
2023/09/06 05:52:42;;;;;;;11.10;8.40;;;19.70;99.90;;;;;;5012986;28;20472;-64
2023/09/06 05:55:10;;;;;;;9.00;8.20;;;19.70;99.90;;;;;;5012144;28;20426;-65
2023/09/06 05:57:36;;;;;;;11.40;10.40;;;19.60;99.90;;;;;;5012782;28;20422;-65
2023/09/06 06:00:04;;;;;;;11.83;10.73;;;19.60;99.90;;;;;;5013117;28;20425;-64
2023/09/06 06:02:32;;;;;;;10.00;9.10;;;19.60;99.90;;;;;;5012070;28;20497;-65
2023/09/06 06:04:59;;;;;;;10.10;9.17;;;19.70;99.90;;;;;;5013407;28;20433;-65
2023/09/06 06:07:25;;;;;;;8.60;7.70;;;19.70;99.90;;;;;;5012981;28;20402;-65
2023/09/06 06:09:51;;;;;;;10.33;9.33;;;19.60;99.90;;;;;;5013722;28;20611;-65
2023/09/06 06:12:22;;;;;;;10.47;9.67;;;19.60;99.90;;;;;;5011435;28;20175;-65
2023/09/06 06:14:49;;;;;;;7.77;7.20;;;19.60;99.90;;;;;;5013686;28;20155;-65
2023/09/06 06:17:15;;;;;;;9.07;8.20;;;19.60;99.90;;;;;;5012071;28;21011;-65
2023/09/06 06:19:42;;;;;;;11.50;8.10;;;19.60;99.90;;;;;;5012234;28;20428;-64
2023/09/06 06:22:07;;;;;;;10.30;8.40;;;19.60;99.90;;;;;;5011623;28;20855;-64
2023/09/06 06:24:34;;;;;;;9.40;8.53;;;19.50;99.90;;;;;;5011496;28;20438;-64
2023/09/06 06:26:59;;;;;;;16.53;13.47;;;19.60;99.90;;;;;;5012198;28;20187;-65
2023/09/06 06:29:25;;;;;;;421.37;328.77;;;19.70;99.90;;;;;;5012185;28;20892;-64
2023/09/06 06:31:52;;;;;;;50.33;42.03;;;19.70;99.90;;;;;;5012085;28;20194;-64
2023/09/06 06:34:18;;;;;;;11.40;10.20;;;19.80;99.90;;;;;;5012031;28;20493;-67
2023/09/06 06:36:47;;;;;;;10.03;8.00;;;19.80;99.90;;;;;;4998895;28;20909;-62
2023/09/06 06:39:17;;;;;;;8.83;7.80;;;19.90;99.90;;;;;;5009147;28;20447;-64
2023/09/06 06:41:44;;;;;;;10.27;9.37;;;20.00;99.90;;;;;;5013075;28;20430;-64
2023/09/06 06:44:10;;;;;;;7.70;7.00;;;20.00;99.90;;;;;;5011822;28;20810;-64
2023/09/06 06:46:38;;;;;;;8.97;7.67;;;20.00;99.90;;;;;;5010272;28;20464;-65
2023/09/06 06:49:07;;;;;;;7.60;6.90;;;20.00;99.90;;;;;;5003929;28;20926;-64
2023/09/06 06:51:38;;;;;;;8.80;8.10;;;20.10;99.90;;;;;;4992418;28;20465;-64
2023/09/06 06:54:14;;;;;;;7.63;6.93;;;20.10;99.90;;;;;;5005899;28;20456;-64
2023/09/06 06:56:41;;;;;;;9.27;7.70;;;20.20;99.90;;;;;;5010828;28;20454;-68
2023/09/06 06:59:08;;;;;;;8.30;7.70;;;20.20;99.90;;;;;;5012189;28;20544;-65
2023/09/06 07:01:34;;;;;;;9.80;7.63;;;20.10;99.90;;;;;;5011347;28;20430;-65
2023/09/06 07:04:00;;;;;;;611.50;450.50;;;20.10;99.90;;;;;;5012041;28;20175;-64
2023/09/06 07:06:29;;;;;;;54.67;41.53;;;20.20;99.90;;;;;;5011966;28;20488;-64
2023/09/06 07:08:55;;;;;;;9.73;8.93;;;20.30;99.90;;;;;;5012969;28;20406;-65
2023/09/06 07:11:21;;;;;;;9.80;8.27;;;20.40;99.90;;;;;;5000541;28;20462;-63
2023/09/06 07:13:48;;;;;;;9.37;7.70;;;20.30;99.90;;;;;;4993042;28;20485;-62
2023/09/06 07:16:19;;;;;;;9.27;6.70;;;20.30;99.90;;;;;;5004468;28;20458;-62
2023/09/06 07:18:46;;;;;;;10.30;6.90;;;20.40;99.90;;;;;;5010511;28;20479;-65
2023/09/06 07:21:13;;;;;;;6.87;6.30;;;20.40;99.90;;;;;;5012690;28;20489;-62
2023/09/06 07:23:39;;;;;;;7.40;6.80;;;20.40;99.90;;;;;;5011692;28;20440;-63
2023/09/06 07:26:05;;;;;;;6.33;5.93;;;20.50;99.90;;;;;;5011490;28;20425;-62
2023/09/06 07:28:42;;;;;;;7.13;6.47;;;20.60;99.90;;;;;;5012029;28;20182;-62
2023/09/06 07:31:08;;;;;;;8.17;5.70;;;20.70;99.90;;;;;;5011421;28;20414;-62
2023/09/06 07:33:35;;;;;;;6.97;6.37;;;20.60;99.90;;;;;;5012043;28;20466;-62
2023/09/06 07:36:01;;;;;;;7.20;6.70;;;20.80;99.90;;;;;;5012465;28;20785;-62
2023/09/06 07:38:27;;;;;;;6.30;5.90;;;20.90;99.90;;;;;;5010263;28;20508;-62
2023/09/06 07:40:56;;;;;;;6.63;6.03;;;21.00;99.90;;;;;;5011285;28;20421;-62
2023/09/06 07:43:23;;;;;;;6.23;5.83;;;21.10;99.90;;;;;;5011924;28;20421;-63
2023/09/06 07:45:49;;;;;;;7.50;6.10;;;21.20;99.90;;;;;;5012502;28;20437;-62
2023/09/06 07:48:14;;;;;;;10.47;7.63;;;21.30;99.90;;;;;;5012604;28;20457;-62
2023/09/06 07:50:41;;;;;;;6.83;6.23;;;21.40;99.90;;;;;;5011857;28;20179;-62
2023/09/06 07:53:07;;;;;;;7.43;6.77;;;21.50;99.90;;;;;;5012336;28;20195;-62
2023/09/06 07:55:32;;;;;;;7.77;7.00;;;21.60;99.90;;;;;;5011835;28;20507;-63
2023/09/06 07:57:58;;;;;;;7.60;7.00;;;21.70;99.90;;;;;;5012495;28;20712;-62
2023/09/06 08:00:24;;;;;;;7.77;7.27;;;21.80;99.90;;;;;;4994257;28;20206;-63
2023/09/06 08:02:50;;;;;;;7.07;6.67;;;21.90;99.90;;;;;;5011554;28;20183;-63
2023/09/06 08:05:16;;;;;;;8.07;7.43;;;22.00;99.90;;;;;;5031154;28;20398;-62
2023/09/06 08:07:42;;;;;;;7.80;7.20;;;22.10;99.90;;;;;;5012924;28;20388;-62
2023/09/06 08:10:09;;;;;;;9.03;8.30;;;22.20;99.90;;;;;;5015908;28;20410;-62
2023/09/06 08:12:36;;;;;;;8.53;8.00;;;22.30;99.90;;;;;;5015365;28;20182;-62
2023/09/06 08:15:03;;;;;;;6.20;5.70;;;22.30;99.90;;;;;;5015877;28;20493;-62
2023/09/06 08:17:29;;;;;;;8.50;7.70;;;22.40;99.90;;;;;;5015109;28;20500;-63
2023/09/06 08:19:55;;;;;;;8.20;7.50;;;22.50;99.90;;;;;;5015629;28;20437;-62
2023/09/06 08:22:21;;;;;;;8.10;7.50;;;22.70;99.90;;;;;;5015425;28;20433;-63
2023/09/06 08:24:47;;;;;;;7.17;6.73;;;22.80;99.90;;;;;;5015106;28;20187;-63
2023/09/06 08:27:13;;;;;;;7.60;6.80;;;22.80;99.90;;;;;;5014459;28;20634;-62
2023/09/06 08:29:38;;;;;;;7.60;7.10;;;22.90;99.90;;;;;;5014969;28;20227;-63
2023/09/06 08:32:04;;;;;;;7.57;6.97;;;23.00;99.90;;;;;;5015597;28;20615;-62
2023/09/06 08:34:30;;;;;;;7.37;6.70;;;23.10;99.90;;;;;;5014723;28;20168;-63
2023/09/06 08:36:56;;;;;;;8.20;7.70;;;23.20;99.90;;;;;;5013455;28;20519;-63
2023/09/06 08:39:22;;;;;;;7.20;6.70;;;23.20;99.90;;;;;;5015062;28;20190;-63
2023/09/06 08:41:49;;;;;;;7.60;7.10;;;23.30;99.90;;;;;;5014745;28;20902;-63
2023/09/06 08:44:18;;;;;;;7.20;6.60;;;23.40;99.90;;;;;;5014389;28;20182;-62
2023/09/06 08:46:46;;;;;;;7.30;6.70;;;23.50;99.90;;;;;;5014698;28;20406;-63
2023/09/06 08:49:13;;;;;;;8.23;7.63;;;23.60;99.90;;;;;;5015471;28;20414;-63
2023/09/06 08:51:42;;;;;;;9.63;7.27;;;23.60;99.90;;;;;;5010519;28;20838;-63
2023/09/06 08:54:09;;;;;;;7.97;7.33;;;23.80;99.90;;;;;;5015098;28;20410;-62
2023/09/06 08:56:35;;;;;;;7.47;6.87;;;23.90;99.90;;;;;;5013308;28;20595;-63
2023/09/06 08:59:01;;;;;;;7.10;6.50;;;24.00;99.90;;;;;;5015057;28;20780;-62
2023/09/06 09:01:28;;;;;;;7.60;7.00;;;24.00;99.90;;;;;;5014020;28;20173;-63
2023/09/06 09:03:54;;;;;;;7.07;6.57;;;24.10;99.90;;;;;;5013835;28;20175;-62
2023/09/06 09:06:22;;;;;;;7.60;7.03;;;24.10;99.90;;;;;;5013618;28;20417;-62
2023/09/06 09:08:48;;;;;;;7.67;7.07;;;24.30;99.90;;;;;;5013916;28;20496;-62
2023/09/06 09:11:15;;;;;;;8.13;7.53;;;24.30;99.90;;;;;;5014772;28;20517;-62
2023/09/06 09:13:41;;;;;;;7.30;6.70;;;24.40;99.90;;;;;;5014155;28;20175;-62
2023/09/06 09:16:09;;;;;;;7.50;6.90;;;24.50;99.90;;;;;;5013626;28;20484;-62
2023/09/06 09:18:37;;;;;;;6.60;6.10;;;24.70;99.90;;;;;;5011667;28;20790;-62
2023/09/06 09:21:03;;;;;;;6.63;5.97;;;24.80;99.90;;;;;;5014569;28;20398;-62
2023/09/06 09:23:30;;;;;;;7.20;6.80;;;25.00;99.20;;;;;;5013936;28;20513;-63
2023/09/06 09:25:56;;;;;;;6.30;5.90;;;25.10;98.90;;;;;;5010570;28;20426;-62
2023/09/06 09:28:23;;;;;;;5.50;5.20;;;25.40;99.90;;;;;;5013625;28;20461;-62
2023/09/06 09:30:50;;;;;;;17.63;6.97;;;25.70;97.90;;;;;;5013746;28;20410;-62
2023/09/06 09:33:16;;;;;;;6.93;6.43;;;25.90;96.30;;;;;;5014372;28;20410;-62
2023/09/06 09:35:43;;;;;;;6.80;6.20;;;26.20;96.40;;;;;;5012448;28;20465;-62
2023/09/06 09:38:13;;;;;;;6.93;6.43;;;26.40;93.90;;;;;;5014355;28;20465;-62
2023/09/06 09:40:38;;;;;;;7.17;6.60;;;26.60;93.20;;;;;;5011387;28;20536;-62
2023/09/06 09:43:04;;;;;;;7.00;6.50;;;26.80;91.90;;;;;;5014200;28;20534;-62
2023/09/06 09:45:40;;;;;;;6.43;6.00;;;27.10;92.30;;;;;;5013610;28;20171;-63
2023/09/06 09:48:08;;;;;;;7.93;6.60;;;27.40;92.70;;;;;;5014365;28;20394;-62
2023/09/06 09:50:35;;;;;;;6.20;5.70;;;27.70;92.70;;;;;;5013233;28;20893;-63
2023/09/06 09:53:07;;;;;;;7.00;6.50;;;28.00;89.90;;;;;;5014365;28;20421;-62
2023/09/06 09:55:35;;;;;;;7.50;7.00;;;28.20;90.10;;;;;;5010921;28;20556;-63
2023/09/06 09:58:07;;;;;;;7.40;7.00;;;28.40;86.20;;;;;;5007464;28;20427;-62
2023/09/06 10:00:33;;;;;;;7.37;6.97;;;28.70;84.20;;;;;;4994041;28;20877;-63
2023/09/06 10:03:00;;;;;;;6.80;6.40;;;28.90;86.10;;;;;;5007885;28;20449;-62
2023/09/06 10:05:29;;;;;;;112.83;94.63;;;29.10;84.30;;;;;;5014017;28;20932;-62
2023/09/06 10:07:56;;;;;;;28.60;25.90;;;29.40;86.40;;;;;;5013282;28;20410;-62
2023/09/06 10:10:24;;;;;;;7.53;7.03;;;29.60;84.50;;;;;;5013655;28;20410;-62
2023/09/06 10:12:51;;;;;;;7.27;6.87;;;29.80;82.60;;;;;;5012613;28;20505;-62
2023/09/06 10:15:23;;;;;;;7.63;7.13;;;30.00;82.50;;;;;;5013281;28;20445;-62
2023/09/06 10:17:50;;;;;;;6.90;6.47;;;30.20;82.30;;;;;;5013025;28;20478;-62
2023/09/06 10:20:22;;;;;;;6.47;6.07;;;30.30;73.30;;;;;;5013573;28;20394;-62
2023/09/06 10:22:50;;;;;;;5.93;5.60;;;30.40;72.70;;;;;;5012979;28;20406;-63
2023/09/06 10:25:17;;;;;;;5.87;5.43;;;30.50;73.30;;;;;;5009828;28;20414;-63
2023/09/06 10:27:54;;;;;;;6.77;6.37;;;30.60;71.40;;;;;;5006644;28;20425;-62
2023/09/06 10:30:40;;;;;;;6.93;6.43;;;30.80;75.30;;;;;;5010052;28;20428;-63
2023/09/06 10:33:08;;;;;;;7.47;7.07;;;30.90;75.60;;;;;;5006224;28;20426;-63
2023/09/06 10:35:41;;;;;;;8.40;7.70;;;31.10;71.80;;;;;;5007261;28;20461;-63
2023/09/06 10:38:15;;;;;;;6.00;5.70;;;31.20;72.00;;;;;;5003825;28;20459;-63
2023/09/06 10:40:48;;;;;;;7.30;6.70;;;31.20;69.70;;;;;;5002164;28;21047;-66
2023/09/06 10:43:14;;;;;;;6.70;6.23;;;31.30;71.50;;;;;;5007432;28;20433;-68
2023/09/06 10:45:40;;;;;;;5.90;5.50;;;31.40;65.80;;;;;;5000831;28;20847;-64
2023/09/06 10:48:10;;;;;;;6.80;6.40;;;31.40;65.10;;;;;;4996552;28;20927;-64
2023/09/06 10:50:36;;;;;;;7.17;6.77;;;31.20;64.10;;;;;;5002632;28;20430;-65
2023/09/06 10:53:03;;;;;;;8.00;7.50;;;31.20;66.00;;;;;;5002126;28;20414;-64
2023/09/06 10:55:47;;;;;;;6.23;5.73;;;31.20;68.80;;;;;;5009318;28;20509;-64
2023/09/06 10:58:13;;;;;;;7.97;7.10;;;31.40;71.00;;;;;;5010698;28;20409;-65
2023/09/06 11:00:41;;;;;;;7.67;7.07;;;31.50;66.80;;;;;;5006772;28;20418;-64
2023/09/06 11:03:06;;;;;;;6.63;6.33;;;31.50;67.70;;;;;;5008519;28;20174;-65
2023/09/06 11:05:45;;;;;;;6.83;6.30;;;31.60;66.80;;;;;;5009401;28;20413;-65
2023/09/06 11:08:29;;;;;;;7.40;6.90;;;31.60;64.00;;;;;;5009875;28;20206;-65
2023/09/06 11:11:07;;;;;;;6.30;5.90;;;31.60;63.60;;;;;;5007213;28;20417;-64
2023/09/06 11:13:34;;;;;;;6.70;6.17;;;31.70;61.50;;;;;;5010662;28;20410;-64
2023/09/06 11:16:01;;;;;;;6.40;6.10;;;31.70;62.00;;;;;;5012376;28;20548;-63
2023/09/06 11:18:28;;;;;;;6.70;6.13;;;31.60;63.60;;;;;;5008410;28;20425;-63
2023/09/06 11:20:54;;;;;;;6.23;5.87;;;31.70;59.10;;;;;;5011691;28;20674;-64
2023/09/06 11:23:21;;;;;;;6.07;5.77;;;31.70;62.00;;;;;;5012765;28;20905;-64
2023/09/06 11:25:58;;;;;;;7.00;6.50;;;31.90;64.40;;;;;;5007218;28;20437;-63
2023/09/06 11:28:24;;;;;;;7.10;6.70;;;32.00;63.40;;;;;;5011504;28;20429;-64
2023/09/06 11:30:51;;;;;;;6.67;6.27;;;32.10;61.40;;;;;;5011679;28;20497;-64
2023/09/06 11:33:17;;;;;;;7.30;6.70;;;32.10;60.40;;;;;;5011922;28;20901;-64
2023/09/06 11:35:52;;;;;;;6.30;6.00;;;32.20;61.30;;;;;;5009369;28;20966;-63
2023/09/06 11:38:24;;;;;;;6.60;6.20;;;32.30;64.80;;;;;;5012422;28;20458;-63
2023/09/06 11:40:50;;;;;;;6.40;5.97;;;32.40;59.40;;;;;;5012981;28;20398;-65
2023/09/06 11:43:19;;;;;;;6.13;5.73;;;32.40;59.30;;;;;;5013056;28;20781;-63
2023/09/06 11:45:48;;;;;;;5.33;5.03;;;32.30;57.20;;;;;;5013656;28;20414;-64
2023/09/06 11:48:19;;;;;;;5.67;5.37;;;32.30;59.40;;;;;;5015162;28;20512;-64
2023/09/06 11:50:50;;;;;;;5.70;5.30;;;32.40;57.90;;;;;;5015345;28;20394;-64
2023/09/06 11:53:15;;;;;;;6.13;5.67;;;32.40;57.10;;;;;;5013993;28;20500;-63
2023/09/06 11:55:45;;;;;;;5.83;5.53;;;32.20;57.40;;;;;;5015151;28;20536;-64
2023/09/06 11:58:16;;;;;;;5.90;5.50;;;32.20;60.00;;;;;;5013652;28;20171;-64
2023/09/06 12:00:47;;;;;;;6.23;5.93;;;32.20;58.40;;;;;;5015306;28;20815;-64
2023/09/06 12:03:16;;;;;;;6.40;6.00;;;32.10;57.50;;;;;;5015781;28;20486;-64
2023/09/06 12:05:47;;;;;;;6.70;6.30;;;32.10;57.00;;;;;;5013784;28;20791;-64
2023/09/06 12:08:19;;;;;;;7.97;7.47;;;32.20;58.30;;;;;;5015115;28;20406;-64
2023/09/06 12:10:54;;;;;;;6.53;6.23;;;32.20;59.10;;;;;;5014985;28;20394;-64
2023/09/06 12:13:37;;;;;;;7.03;6.43;;;32.20;59.00;;;;;;5015538;28;20417;-64
2023/09/06 12:16:05;;;;;;;9.73;9.03;;;32.20;59.70;;;;;;5014679;28;20481;-64
2023/09/06 12:18:33;;;;;;;7.67;7.17;;;32.30;61.70;;;;;;5013490;28;20430;-64
2023/09/06 12:20:59;;;;;;;6.43;5.83;;;32.40;59.80;;;;;;5014785;28;20494;-64
2023/09/06 12:23:28;;;;;;;6.00;5.60;;;32.30;59.00;;;;;;5015269;28;20430;-63
2023/09/06 12:25:55;;;;;;;5.97;5.67;;;32.10;58.00;;;;;;5013166;28;20264;-64
2023/09/06 12:28:21;;;;;;;5.17;4.87;;;32.10;59.30;;;;;;5015512;28;20411;-64
2023/09/06 12:30:47;;;;;;;5.90;5.60;;;32.10;58.10;;;;;;5013088;28;20394;-64
2023/09/06 12:33:15;;;;;;;6.97;6.53;;;32.00;57.70;;;;;;5014861;28;20701;-64
2023/09/06 12:35:41;;;;;;;6.03;5.70;;;31.90;58.80;;;;;;5014454;28;20286;-64
2023/09/06 12:38:07;;;;;;;6.00;5.60;;;31.90;60.00;;;;;;5014679;28;20596;-64
2023/09/06 12:40:34;;;;;;;6.17;5.87;;;31.70;61.90;;;;;;5015414;28;20266;-63
2023/09/06 12:43:00;;;;;;;5.83;5.43;;;31.50;59.70;;;;;;5014416;28;20510;-64
2023/09/06 12:45:30;;;;;;;5.67;5.37;;;31.40;61.20;;;;;;5015338;28;20735;-63
2023/09/06 12:48:00;;;;;;;6.70;6.20;;;31.30;59.90;;;;;;5014695;28;20213;-64
2023/09/06 12:50:27;;;;;;;200.87;178.70;;;31.20;58.10;;;;;;5014155;28;20411;-63